Time;durP1;ratioP1;P1;durP2;ratioP2;P2;SDS_P1;SDS_P2;PMS_P1;PMS_P2;Temp;Humidity;BMP_temperature;BMP_pressure;BME280_temperature;BME280_humidity;BME280_pressure;Samples;Min_cycle;Max_cycle;Signal;HPM_P1;HPM_P2
2022/11/15 00:04:57;;;;;;;12.73;10.17;;;;;;;9.29;59.67;99596.97;10415859;28;20232;-73
2022/11/15 00:09:58;;;;;;;11.50;10.33;;;;;;;9.98;58.03;99586.09;10420250;28;20322;-74
2022/11/15 00:15:00;;;;;;;12.10;9.30;;;;;;;9.88;57.94;99596.22;10429511;28;20221;-72
2022/11/15 00:20:03;;;;;;;12.43;9.77;;;;;;;10.02;57.90;99592.72;10440038;28;20236;-73
2022/11/15 00:25:05;;;;;;;12.37;9.83;;;;;;;9.54;58.91;99590.38;10442131;28;20700;-72
2022/11/15 00:30:07;;;;;;;15.40;10.53;;;;;;;9.29;60.32;99592.44;10442773;28;20242;-71
2022/11/15 00:35:09;;;;;;;12.87;9.67;;;;;;;9.23;59.74;99566.47;10440342;28;20240;-72
2022/11/15 00:40:14;;;;;;;13.33;11.00;;;;;;;8.99;60.59;99559.50;10420650;28;20301;-74
2022/11/15 00:45:16;;;;;;;10.37;9.27;;;;;;;9.83;59.07;99548.69;10433044;28;20704;-72
2022/11/15 00:50:18;;;;;;;13.43;9.60;;;;;;;10.20;58.14;99546.06;10457017;28;20246;-74
2022/11/15 00:55:20;;;;;;;12.63;9.60;;;;;;;10.31;57.23;99550.94;10455338;28;20711;-73
2022/11/15 01:00:23;;;;;;;13.67;9.90;;;;;;;9.81;58.19;99560.53;10452125;28;20737;-70
2022/11/15 01:05:24;;;;;;;14.73;9.80;;;;;;;9.63;59.38;99559.06;10461940;28;20674;-70
2022/11/15 01:10:26;;;;;;;12.27;9.30;;;;;;;9.92;58.62;99544.06;10451235;28;20243;-70
2022/11/15 01:15:28;;;;;;;11.03;9.47;;;;;;;9.61;58.79;99546.91;10461611;28;20238;-72
2022/11/15 01:20:29;;;;;;;15.40;9.63;;;;;;;10.02;58.22;99538.44;10453797;28;20239;-70
2022/11/15 01:25:31;;;;;;;13.27;9.90;;;;;;;9.98;57.83;99547.84;10463005;28;20231;-73
2022/11/15 01:30:33;;;;;;;11.87;9.30;;;;;;;9.27;59.85;99562.44;10457054;28;20720;-71
2022/11/15 01:35:38;;;;;;;11.20;9.50;;;;;;;10.99;55.82;99550.59;10453976;28;20231;-72
2022/11/15 01:40:41;;;;;;;11.63;9.27;;;;;;;11.28;54.91;99554.13;10458775;28;20231;-74
2022/11/15 01:45:43;;;;;;;10.57;8.53;;;;;;;11.12;54.70;99542.69;10407159;28;20297;-72
2022/11/15 01:50:45;;;;;;;12.57;9.30;;;;;;;11.12;55.07;99555.22;10413325;28;20228;-70
2022/11/15 01:55:47;;;;;;;11.60;8.67;;;;;;;11.34;55.17;99559.53;10408370;28;20205;-74
2022/11/15 02:00:50;;;;;;;10.77;7.83;;;;;;;11.26;54.90;99554.31;10452155;28;20243;-70
2022/11/15 02:05:52;;;;;;;11.80;8.70;;;;;;;12.26;52.64;99564.78;10449962;28;20271;-73
2022/11/15 02:10:54;;;;;;;15.30;9.53;;;;;;;10.64;56.37;99551.25;10454311;28;20242;-73
2022/11/15 02:16:13;;;;;;;11.73;8.80;;;;;;;11.22;54.69;99523.56;10453990;28;20206;-72
2022/11/15 02:21:27;;;;;;;11.47;9.07;;;;;;;11.74;54.11;99543.75;10410401;28;20229;-72
2022/11/15 02:27:04;;;;;;;10.60;8.43;;;;;;;11.12;54.91;99531.97;10417060;28;20727;-70
2022/11/15 02:32:11;;;;;;;10.67;8.43;;;;;;;11.59;54.29;99542.97;10452699;28;20224;-71
2022/11/15 02:37:42;;;;;;;11.27;9.00;;;;;;;12.11;52.67;99543.47;10456086;28;20242;-72
2022/11/15 02:48:25;;;;;;;11.97;9.37;;;;;;;11.14;54.19;99518.38;10433277;28;20227;-73
2022/11/15 02:53:27;;;;;;;12.93;9.37;;;;;;;10.50;55.90;99525.41;10448718;28;20262;-73
2022/11/15 02:58:51;;;;;;;11.60;10.40;;;;;;;10.14;56.73;99513.72;10438246;28;20231;-73
2022/11/15 03:04:19;;;;;;;12.53;10.17;;;;;;;9.52;58.90;99511.44;10449587;28;20239;-71
2022/11/15 03:09:26;;;;;;;11.83;10.23;;;;;;;10.98;56.38;99452.56;10461793;28;20237;-72
2022/11/15 03:14:36;;;;;;;12.00;10.07;;;;;;;11.05;55.91;99464.13;10456465;28;20235;-73
2022/11/15 03:19:46;;;;;;;13.13;9.97;;;;;;;10.93;55.97;99458.47;10455716;28;20231;-72
2022/11/15 03:24:53;;;;;;;11.23;9.57;;;;;;;9.39;58.80;99485.38;10455289;28;20234;-69
2022/11/15 03:30:00;;;;;;;11.30;9.67;;;;;;;10.96;55.87;99450.06;10449903;28;20231;-74
2022/11/15 03:35:12;;;;;;;13.37;11.10;;;;;;;10.60;56.25;99468.91;10453087;28;20226;-70
2022/11/15 03:40:16;;;;;;;11.97;9.23;;;;;;;10.43;56.75;99463.81;10455928;28;20227;-70
2022/11/15 03:45:23;;;;;;;13.90;10.27;;;;;;;10.03;57.37;99458.03;10455109;28;20224;-71
2022/11/15 03:50:26;;;;;;;11.90;10.10;;;;;;;10.89;56.01;99450.00;10418437;28;20298;-70
2022/11/15 03:55:28;;;;;;;13.37;10.27;;;;;;;9.22;59.89;99466.84;10411176;28;20232;-72
2022/11/15 04:00:30;;;;;;;11.67;8.80;;;;;;;10.64;56.77;99425.50;10410250;28;20252;-71
2022/11/15 04:05:31;;;;;;;10.20;8.67;;;;;;;11.06;55.44;99439.00;10410095;28;20243;-67
2022/11/15 04:10:33;;;;;;;10.10;8.30;;;;;;;10.57;56.80;99445.22;10422005;28;20318;-67
2022/11/15 04:15:35;;;;;;;11.37;9.00;;;;;;;10.35;57.27;99447.06;10425356;28;20715;-67
2022/11/15 04:26:02;;;;;;;14.70;10.23;;;;;;;11.16;55.99;99444.84;10433789;28;20260;-70
2022/11/15 04:31:03;;;;;;;12.57;10.23;;;;;;;9.73;58.55;99455.41;10390655;28;20715;-71
2022/11/15 04:41:26;;;;;;;10.57;9.43;;;;;;;11.31;55.23;99425.16;10431712;28;20231;-72
2022/11/15 04:46:27;;;;;;;10.13;8.67;;;;;;;10.25;56.99;99458.06;10429844;28;20244;-73
2022/11/15 04:51:29;;;;;;;11.97;9.90;;;;;;;10.42;57.72;99421.19;10417440;28;20977;-69
2022/11/15 04:56:31;;;;;;;13.93;9.57;;;;;;;11.19;55.58;99422.22;10421303;28;20239;-72
2022/11/15 05:01:32;;;;;;;9.90;8.77;;;;;;;10.77;56.27;99427.50;10441111;28;20797;-72
2022/11/15 05:06:34;;;;;;;10.93;8.80;;;;;;;10.95;55.38;99416.31;10434844;28;20235;-74
2022/11/15 05:11:36;;;;;;;11.80;8.77;;;;;;;11.32;55.29;99427.66;10433347;28;20266;-72
2022/11/15 05:16:38;;;;;;;10.03;8.47;;;;;;;10.95;55.29;99418.13;10443039;28;20238;-72
2022/11/15 05:21:40;;;;;;;11.87;9.00;;;;;;;11.21;55.80;99414.81;10439391;28;20239;-72
2022/11/15 05:26:41;;;;;;;11.83;8.20;;;;;;;10.92;56.07;99421.19;10416454;28;20243;-74
2022/11/15 05:31:43;;;;;;;10.97;8.63;;;;;;;10.83;55.74;99423.19;10419319;28;20279;-71
2022/11/15 05:36:45;;;;;;;14.13;8.60;;;;;;;9.54;59.60;99446.13;10416736;28;20786;-73
2022/11/15 05:41:54;;;;;;;10.73;8.53;;;;;;;11.32;55.44;99408.91;10417489;28;20778;-74
2022/11/15 05:46:57;;;;;;;14.10;12.37;;;;;;;10.19;57.77;99424.91;10414450;28;20243;-74
2022/11/15 05:51:59;;;;;;;14.90;12.27;;;;;;;9.26;59.37;99424.59;10400514;28;20650;-70
2022/11/15 05:57:01;;;;;;;11.50;9.30;;;;;;;9.99;58.90;99386.44;10431147;28;20246;-74
2022/11/15 06:02:03;;;;;;;9.80;7.80;;;;;;;9.12;60.79;99404.91;10456380;28;20957;-70
2022/11/15 06:07:05;;;;;;;10.57;8.10;;;;;;;9.21;60.23;99385.13;10449279;28;20266;-72
2022/11/15 06:12:06;;;;;;;10.67;9.40;;;;;;;8.78;60.59;99387.53;10453880;28;20315;-70
2022/11/15 06:17:08;;;;;;;29.87;22.77;;;;;;;9.05;60.56;99379.97;10459054;28;20235;-74
2022/11/15 06:22:12;;;;;;;23.23;18.47;;;;;;;9.64;59.11;99344.31;10451487;28;20235;-73
2022/11/15 06:27:13;;;;;;;14.53;10.17;;;;;;;9.43;59.73;99345.09;10453286;28;20233;-72
2022/11/15 06:32:15;;;;;;;11.33;8.90;;;;;;;9.96;58.22;99345.69;10460081;28;20235;-73
2022/11/15 06:37:16;;;;;;;9.27;7.73;;;;;;;10.97;55.83;99344.66;10458679;28;20246;-71
2022/11/15 06:42:18;;;;;;;11.60;7.97;;;;;;;12.03;53.27;99372.03;10458068;28;20230;-73
2022/11/15 06:47:20;;;;;;;9.27;8.27;;;;;;;10.01;57.29;99387.91;10458357;28;20239;-70
2022/11/15 06:52:22;;;;;;;20.70;18.40;;;;;;;10.18;56.71;99379.66;10456362;28;20738;-74
2022/11/15 06:57:23;;;;;;;13.00;11.37;;;;;;;9.84;57.51;99384.66;10452809;28;20240;-72
2022/11/15 07:02:25;;;;;;;11.20;9.13;;;;;;;9.36;59.68;99397.59;10452638;28;20305;-72
2022/11/15 07:07:27;;;;;;;12.17;8.77;;;;;;;8.71;60.67;99380.44;10456703;28;20733;-70
2022/11/15 07:12:28;;;;;;;10.57;9.27;;;;;;;8.78;61.44;99386.72;10451377;28;20232;-71
2022/11/15 07:17:30;;;;;;;12.33;9.03;;;;;;;10.16;58.23;99331.72;10451740;28;20235;-71
2022/11/15 07:22:32;;;;;;;9.93;8.40;;;;;;;10.59;56.10;99358.34;10449919;28;20719;-72
2022/11/15 07:27:33;;;;;;;11.93;8.70;;;;;;;10.74;56.49;99362.78;10454379;28;20735;-71
2022/11/15 07:32:35;;;;;;;12.80;9.47;;;;;;;11.14;55.15;99371.09;10455285;28;20230;-73
2022/11/15 07:37:37;;;;;;;18.03;12.67;;;;;;;9.20;59.67;99412.00;10450894;28;20246;-70
2022/11/15 07:42:53;;;;;;;18.37;12.37;;;;;;;10.58;56.68;99372.78;10456878;28;20603;-71
2022/11/15 07:47:56;;;;;;;12.20;10.90;;;;;;;11.67;54.85;99386.59;10468583;28;20227;-71
2022/11/15 07:52:59;;;;;;;11.87;9.93;;;;;;;11.69;54.52;99385.34;10462031;28;20231;-71
2022/11/15 07:58:09;;;;;;;12.30;10.57;;;;;;;11.87;53.80;99408.09;10463992;28;20258;-73
2022/11/15 08:03:13;;;;;;;15.17;9.13;;;;;;;11.81;53.99;99398.97;10459849;28;20239;-71
2022/11/15 08:08:15;;;;;;;13.30;9.43;;;;;;;10.47;56.66;99413.41;10458810;28;20231;-71
2022/11/15 08:13:17;;;;;;;10.77;7.77;;;;;;;10.89;56.77;99403.69;10458723;28;20228;-70
2022/11/15 08:18:18;;;;;;;10.10;9.03;;;;;;;11.12;56.17;99382.00;10458304;28;20236;-73
2022/11/15 08:23:20;;;;;;;9.50;8.27;;;;;;;11.48;55.97;99397.00;10465272;28;20224;-74
2022/11/15 08:28:22;;;;;;;9.63;8.20;;;;;;;11.47;55.47;99395.34;10464724;28;20239;-73
2022/11/15 08:33:24;;;;;;;13.77;8.77;;;;;;;10.54;58.33;99378.69;10460012;28;20293;-72
2022/11/15 08:38:28;;;;;;;10.30;8.13;;;;;;;10.66;57.41;99372.63;10468977;28;20281;-71
2022/11/15 08:43:31;;;;;;;10.77;8.20;;;;;;;11.40;56.74;99375.72;10458438;28;20290;-70
2022/11/15 08:48:32;;;;;;;13.63;8.17;;;;;;;11.76;55.58;99390.72;10467241;28;20280;-70
2022/11/15 08:53:35;;;;;;;9.87;7.60;;;;;;;11.64;56.14;99393.16;10460376;28;20227;-72
2022/11/15 08:58:36;;;;;;;11.87;9.57;;;;;;;12.05;55.05;99391.44;10460696;28;20236;-73
2022/11/15 09:03:40;;;;;;;11.00;8.50;;;;;;;10.46;58.51;99399.22;10466317;28;20243;-70
2022/11/15 09:08:42;;;;;;;11.20;8.63;;;;;;;12.53;54.16;99373.31;10471097;28;20236;-70
2022/11/15 09:13:57;;;;;;;12.30;8.00;;;;;;;12.74;54.12;99372.28;10467055;28;20808;-73
2022/11/15 09:18:58;;;;;;;9.40;7.60;;;;;;;12.48;54.00;99357.00;10461830;28;20278;-73
2022/11/15 09:24:00;;;;;;;9.07;7.20;;;;;;;12.61;54.30;99366.09;10461888;28;20231;-70
2022/11/15 09:29:02;;;;;;;10.10;8.13;;;;;;;11.68;56.48;99361.44;10461231;28;20239;-73
2022/11/15 09:34:04;;;;;;;10.13;8.27;;;;;;;11.94;56.86;99358.00;10425340;28;20229;-73
2022/11/15 09:39:05;;;;;;;10.47;7.83;;;;;;;12.88;54.21;99340.84;10436372;28;20231;-72
2022/11/15 09:44:29;;;;;;;9.30;7.13;;;;;;;11.67;57.52;99357.09;10437848;28;20238;-74
2022/11/15 09:49:31;;;;;;;9.03;8.10;;;;;;;11.51;58.13;99326.13;10435339;28;20277;-73
2022/11/15 09:54:36;;;;;;;11.03;9.30;;;;;;;13.23;54.57;99335.16;10441743;28;20236;-73
2022/11/15 09:59:55;;;;;;;17.10;13.47;;;;;;;12.05;58.33;99319.84;10455611;28;20300;-72
2022/11/15 10:04:59;;;;;;;13.23;10.47;;;;;;;12.42;55.44;99311.38;10455056;28;20239;-74
2022/11/15 10:10:10;;;;;;;15.33;13.20;;;;;;;12.27;56.37;99317.78;10444980;28;20712;-73
2022/11/15 10:15:15;;;;;;;18.23;16.17;;;;;;;12.81;55.78;99318.56;10413078;28;20239;-73
2022/11/15 10:20:19;;;;;;;12.13;10.50;;;;;;;11.97;57.59;99314.69;10424164;28;20922;-73
2022/11/15 10:25:26;;;;;;;13.17;8.70;;;;;;;12.61;56.01;99315.09;10419968;28;20228;-73
2022/11/15 10:30:49;;;;;;;8.47;7.30;;;;;;;11.94;57.38;99299.00;10422172;28;20240;-73
2022/11/15 10:36:09;;;;;;;9.50;7.87;;;;;;;12.38;56.76;99281.44;10424061;28;20728;-74
2022/11/15 10:41:11;;;;;;;10.67;6.77;;;;;;;11.31;59.11;99293.91;10416513;28;20251;-71
2022/11/15 10:46:23;;;;;;;8.07;6.77;;;;;;;12.09;57.41;99243.31;10420608;28;20232;-73
2022/11/15 10:51:53;;;;;;;8.30;6.07;;;;;;;11.57;59.01;99229.66;10424243;28;20317;-71
2022/11/15 10:56:58;;;;;;;7.40;6.03;;;;;;;11.63;59.35;99214.66;10415322;28;20240;-72
2022/11/15 11:06:15;;;;;;;7.10;5.47;;;;;;;10.63;63.18;99155.44;10562568;27;20835;-74
2022/11/15 11:11:17;;;;;;;7.73;6.20;;;;;;;9.65;64.18;99184.84;10445259;28;20236;-72
2022/11/15 11:17:04;;;;;;;5.70;5.10;;;;;;;10.07;64.21;99157.25;10418064;28;20232;-70
2022/11/15 11:22:24;;;;;;;7.07;5.43;;;;;;;10.70;62.66;99125.03;10394829;28;20707;-73
2022/11/15 11:27:51;;;;;;;6.00;5.33;;;;;;;10.73;62.31;99123.81;10438179;28;20286;-73
2022/11/15 11:33:07;;;;;;;11.03;8.20;;;;;;;10.37;63.68;99129.44;10405583;28;20220;-70
2022/11/15 11:38:41;;;;;;;13.40;7.97;;;;;;;10.18;63.57;99131.00;10417696;28;20629;-71
2022/11/15 11:43:51;;;;;;;8.67;6.70;;;;;;;11.22;62.01;99098.59;10420062;28;20243;-73
2022/11/15 11:49:08;;;;;;;7.97;5.87;;;;;;;11.20;61.93;99094.44;10419222;28;20235;-73
2022/11/15 11:54:17;;;;;;;8.40;5.43;;;;;;;11.02;61.41;99105.78;10415287;28;20243;-73
2022/11/15 11:59:19;;;;;;;8.90;5.90;;;;;;;11.02;61.58;99100.44;10392511;28;20224;-72
2022/11/15 12:04:36;;;;;;;8.60;6.90;;;;;;;12.25;59.12;99129.41;10398577;28;20278;-74
2022/11/15 12:09:44;;;;;;;7.73;5.83;;;;;;;11.92;59.49;99103.47;10412457;28;20290;-73
2022/11/15 12:15:12;;;;;;;8.27;5.47;;;;;;;12.61;58.66;99119.19;10400404;28;20229;-70
2022/11/15 12:20:18;;;;;;;9.77;5.60;;;;;;;12.06;59.55;99096.22;10372143;28;20225;-73
2022/11/15 12:25:32;;;;;;;7.73;6.20;;;;;;;11.66;61.37;99074.91;10379850;28;20232;-71
2022/11/15 12:30:49;;;;;;;7.90;5.50;;;;;;;12.05;60.59;99072.31;10387859;28;20228;-71
2022/11/15 12:35:59;;;;;;;6.17;5.43;;;;;;;12.33;59.27;99072.84;10396510;28;20577;-71
2022/11/15 12:41:15;;;;;;;5.17;4.63;;;;;;;12.25;58.79;99064.19;10412884;28;20299;-71
2022/11/15 12:46:29;;;;;;;5.80;4.67;;;;;;;11.51;60.47;99060.88;10395041;28;20232;-73
2022/11/15 12:51:42;;;;;;;4.90;4.40;;;;;;;13.15;56.86;99047.97;10416357;28;20239;-72
2022/11/15 12:56:44;;;;;;;6.13;5.27;;;;;;;12.28;59.06;99018.16;10430426;28;20236;-73
2022/11/15 13:01:45;;;;;;;6.37;4.00;;;;;;;13.55;56.12;99034.19;10412371;28;20318;-71
2022/11/15 13:06:50;;;;;;;6.90;4.37;;;;;;;14.24;55.33;99044.84;10397078;28;20713;-71
2022/11/15 13:11:52;;;;;;;8.67;4.60;;;;;;;13.68;56.11;99009.03;10400177;28;20260;-74
2022/11/15 13:17:03;;;;;;;7.43;4.00;;;;;;;13.54;55.61;98994.09;10394944;28;20240;-72
2022/11/15 13:27:31;;;;;;;5.23;4.07;;;;;;;13.87;54.75;99004.50;10411087;28;20239;-73
2022/11/15 13:32:32;;;;;;;4.30;3.87;;;;;;;14.80;53.33;98982.75;10422507;28;20240;-72
2022/11/15 13:37:35;;;;;;;5.63;4.50;;;;;;;14.20;54.84;98968.28;10416809;28;20232;-72
2022/11/15 13:42:36;;;;;;;6.93;4.23;;;;;;;14.25;54.98;98954.97;10421710;28;20387;-72
2022/11/15 13:47:52;;;;;;;6.33;5.73;;;;;;;13.37;57.40;98948.19;10421601;28;21292;-73
2022/11/15 13:52:58;;;;;;;4.40;3.90;;;;;;;14.66;55.16;98925.56;10419399;28;20232;-72
2022/11/15 13:58:06;;;;;;;6.60;3.73;;;;;;;14.33;55.61;98916.16;10419701;28;20227;-74
2022/11/15 14:03:22;;;;;;;6.17;3.80;;;;;;;14.00;55.88;98885.97;10423109;28;20228;-72
2022/11/15 14:08:24;;;;;;;6.07;5.13;;;;;;;14.27;55.59;98893.66;10409374;28;20240;-73
2022/11/15 14:13:31;;;;;;;3.90;3.47;;;;;;;14.71;54.28;98886.13;10389145;28;20236;-74
2022/11/15 14:18:43;;;;;;;5.23;4.67;;;;;;;14.37;54.84;98877.81;10421510;28;20274;-72
2022/11/15 14:23:45;;;;;;;11.10;5.30;;;;;;;14.07;55.21;98866.25;10434944;28;20321;-71
2022/11/15 14:28:47;;;;;;;9.97;5.00;;;;;;;13.37;56.62;98854.13;10424911;28;20228;-72
2022/11/15 14:33:48;;;;;;;7.17;5.00;;;;;;;13.26;57.31;98853.81;10430054;28;20228;-73
2022/11/15 14:38:50;;;;;;;9.67;5.13;;;;;;;13.87;56.62;98845.81;10406626;28;20228;-69
2022/11/15 14:43:53;;;;;;;8.73;5.07;;;;;;;13.06;57.80;98840.63;10386902;28;20243;-69
2022/11/15 14:48:54;;;;;;;7.50;4.80;;;;;;;13.29;57.29;98809.59;10387357;28;20237;-69
2022/11/15 14:53:56;;;;;;;12.13;4.80;;;;;;;13.53;56.71;98807.84;10424858;28;20220;-68
2022/11/15 14:58:58;;;;;;;5.80;3.90;;;;;;;13.97;55.45;98810.28;10425503;28;20240;-68
2022/11/15 15:04:00;;;;;;;7.07;4.83;;;;;;;12.88;57.47;98817.25;10405300;28;20233;-69
2022/11/15 15:09:02;;;;;;;8.83;7.07;;;;;;;13.03;56.78;98790.03;10395865;28;20729;-69
2022/11/15 15:14:04;;;;;;;8.30;5.13;;;;;;;14.20;55.08;98796.91;10395063;28;20224;-74
2022/11/15 15:19:05;;;;;;;8.97;7.23;;;;;;;13.01;56.97;98792.13;10392193;28;20240;-74
2022/11/15 15:24:13;;;;;;;9.50;5.10;;;;;;;13.50;57.09;98784.09;10390614;28;20224;-73
2022/11/15 15:29:15;;;;;;;9.03;6.07;;;;;;;13.40;55.98;98746.22;10390937;28;20232;-70
2022/11/15 15:34:17;;;;;;;5.37;4.40;;;;;;;14.19;54.89;98762.19;10392010;28;20235;-68
2022/11/15 15:39:18;;;;;;;5.73;4.83;;;;;;;12.73;57.07;98768.50;10392573;28;20241;-69
2022/11/15 15:44:20;;;;;;;7.23;4.67;;;;;;;12.41;58.09;98771.25;10397561;28;20228;-68
2022/11/15 15:49:21;;;;;;;12.00;8.20;;;;;;;12.34;59.24;98768.63;10399703;28;20232;-69
2022/11/15 15:54:23;;;;;;;9.43;6.57;;;;;;;13.70;56.35;98729.22;10429731;28;20224;-75
2022/11/15 15:59:24;;;;;;;10.03;7.47;;;;;;;13.98;55.15;98724.00;10420170;28;20290;-69
2022/11/15 16:04:27;;;;;;;10.30;7.37;;;;;;;12.27;59.14;98786.66;10433319;28;20297;-68
2022/11/15 16:15:09;;;;;;;9.40;6.53;;;;;;;12.33;59.07;98715.19;10304019;28;20210;-71
2022/11/15 16:20:44;;;;;;;8.00;5.53;;;;;;;11.86;60.82;98728.22;10410902;28;20335;-70
2022/11/15 16:25:45;;;;;;;6.83;5.33;;;;;;;11.96;60.36;98705.25;10433693;28;20223;-71
2022/11/15 16:30:48;;;;;;;7.10;4.60;;;;;;;11.69;61.06;98718.03;10437418;28;20285;-69
2022/11/15 16:35:56;;;;;;;9.30;6.40;;;;;;;11.58;61.19;98710.69;10437631;28;20232;-72
2022/11/15 16:40:58;;;;;;;6.43;5.10;;;;;;;12.16;58.46;98659.47;10440264;28;20235;-68
2022/11/15 16:46:08;;;;;;;6.77;4.87;;;;;;;12.05;59.48;98659.38;10441052;28;20901;-69
2022/11/15 16:51:14;;;;;;;5.97;4.47;;;;;;;11.79;60.44;98682.69;10439047;28;20240;-71
2022/11/15 16:56:25;;;;;;;10.07;7.50;;;;;;;10.99;62.21;98693.94;10428889;28;20228;-68
2022/11/15 17:01:34;;;;;;;11.00;7.67;;;;;;;11.52;61.39;98672.16;10434929;28;20243;-68
2022/11/15 17:06:35;;;;;;;24.10;15.67;;;;;;;11.52;61.01;98672.16;10430744;28;20601;-70
2022/11/15 17:11:42;;;;;;;16.40;12.70;;;;;;;10.96;62.75;98689.81;10440744;28;20982;-70
2022/11/15 17:16:44;;;;;;;6.67;5.67;;;;;;;10.88;62.95;98690.91;10430049;28;20244;-70
2022/11/15 17:21:48;;;;;;;12.87;9.47;;;;;;;10.59;63.10;98684.19;10412902;28;20915;-70
2022/11/15 17:26:50;;;;;;;7.27;6.37;;;;;;;11.04;62.77;98683.41;10419644;28;20755;-70
2022/11/15 17:31:51;;;;;;;8.33;7.10;;;;;;;11.23;62.42;98666.38;10410083;28;20236;-69
2022/11/15 17:37:05;;;;;;;9.53;7.37;;;;;;;11.12;61.65;98636.81;10256436;28;20318;-70
2022/11/15 17:42:58;;;;;;;8.33;7.20;;;;;;;11.68;61.18;98633.31;9205275;28;10001366;-70
2022/11/15 17:48:02;;;;;;;9.83;6.50;;;;;;;11.60;60.99;98638.94;10046252;28;20228;-69
2022/11/15 17:54:00;;;;;;;9.80;6.47;;;;;;;12.50;57.76;98625.06;10127303;28;20201;-74
2022/11/15 17:59:08;;;;;;;11.47;8.40;;;;;;;12.82;57.79;98654.41;10114334;28;20318;-77
2022/11/15 18:05:22;;;;;;;12.13;8.63;;;;;;;12.74;57.42;98650.16;10103911;28;21324;-76
2022/11/15 18:10:54;;;;;;;11.23;8.07;;;;;;;12.44;58.82;98681.47;10063417;28;20485;-70
2022/11/15 18:16:26;;;;;;;10.00;8.57;;;;;;;12.02;59.12;98667.88;10061847;28;21927;-73
2022/11/15 18:21:59;;;;;;;10.30;8.37;;;;;;;13.43;56.35;98649.00;10246229;28;20242;-70
2022/11/15 18:27:34;;;;;;;10.60;7.67;;;;;;;14.04;55.10;98666.59;10248108;28;20247;-68
2022/11/15 18:33:00;;;;;;;8.97;7.23;;;;;;;12.85;56.98;98667.34;10261594;28;20198;-69
2022/11/15 18:39:17;;;;;;;9.57;8.57;;;;;;;11.65;59.68;98695.41;10103742;28;20240;-70
2022/11/15 18:44:42;;;;;;;10.80;8.63;;;;;;;11.35;60.71;98693.28;10229983;28;20224;-72
2022/11/15 18:50:08;;;;;;;10.07;8.33;;;;;;;12.07;59.06;98631.31;10333152;28;20221;-72
2022/11/15 18:55:34;;;;;;;12.37;8.90;;;;;;;12.64;57.74;98612.31;10367237;28;20849;-71
2022/11/15 19:01:32;;;;;;;9.47;7.90;;;;;;;12.43;56.98;98624.28;10358893;28;20265;-73
2022/11/15 19:06:58;;;;;;;11.07;8.53;;;;;;;12.32;58.44;98625.88;10355679;28;20236;-72
2022/11/15 19:12:04;;;;;;;10.57;8.17;;;;;;;13.79;55.23;98620.31;10357718;28;20288;-72
2022/11/15 19:17:05;;;;;;;17.40;12.77;;;;;;;13.28;55.77;98611.84;10370120;28;20621;-72
2022/11/15 19:22:07;;;;;;;11.90;10.37;;;;;;;14.30;53.94;98631.38;10367702;28;20259;-74
2022/11/15 19:27:08;;;;;;;15.50;12.47;;;;;;;13.39;54.91;98610.22;10377912;28;20240;-75
2022/11/15 19:32:10;;;;;;;14.93;11.73;;;;;;;12.02;57.96;98660.63;10373465;28;20233;-74
2022/11/15 19:37:12;;;;;;;10.90;8.63;;;;;;;11.74;59.23;98661.94;10370513;28;20240;-74
2022/11/15 19:42:13;;;;;;;11.67;9.23;;;;;;;12.58;58.36;98631.19;10373775;28;20232;-73
2022/11/15 19:47:15;;;;;;;10.80;9.47;;;;;;;14.75;52.91;98617.22;10369422;28;20808;-73
2022/11/15 19:52:19;;;;;;;12.63;9.37;;;;;;;14.54;53.21;98613.28;10343890;28;20298;-74
2022/11/15 19:57:20;;;;;;;25.70;16.33;;;;;;;14.25;53.47;98607.88;10363009;28;20722;-72
2022/11/15 20:02:22;;;;;;;16.07;11.00;;;;;;;14.37;52.72;98608.69;10362277;28;20237;-73
2022/11/15 20:07:24;;;;;;;18.03;13.17;;;;;;;14.82;51.83;98628.69;10364455;28;20780;-74
2022/11/15 20:12:25;;;;;;;32.93;22.37;;;;;;;14.53;52.72;98617.88;10360694;28;20744;-73
2022/11/15 20:17:27;;;;;;;18.73;14.67;;;;;;;13.59;53.96;98615.25;10358274;28;20271;-75
2022/11/15 20:22:29;;;;;;;20.20;16.47;;;;;;;14.50;52.58;98610.25;10355846;28;20259;-75
2022/11/15 20:27:30;;;;;;;19.03;14.07;;;;;;;14.39;52.69;98608.41;10354321;28;20249;-71
2022/11/15 20:32:32;;;;;;;22.17;17.37;;;;;;;14.08;53.73;98598.91;10358499;28;20646;-75
2022/11/15 20:37:34;;;;;;;21.33;15.03;;;;;;;14.18;53.48;98586.47;10358230;28;20328;-72
2022/11/15 20:42:36;;;;;;;16.00;13.63;;;;;;;11.79;57.97;98647.84;10364300;28;20240;-73
2022/11/15 20:47:37;;;;;;;24.37;19.43;;;;;;;13.53;55.60;98565.97;10366711;28;20237;-72
2022/11/15 20:52:39;;;;;;;20.33;17.50;;;;;;;13.35;55.04;98558.00;10358681;28;20280;-71
2022/11/15 20:57:40;;;;;;;19.83;15.87;;;;;;;13.47;54.68;98548.88;10364843;28;20701;-71
2022/11/15 21:02:42;;;;;;;22.27;17.57;;;;;;;12.38;57.48;98602.69;10354865;28;20225;-70
2022/11/15 21:07:44;;;;;;;22.03;17.37;;;;;;;14.05;53.88;98543.66;10357268;28;20236;-74
2022/11/15 21:12:46;;;;;;;32.23;24.10;;;;;;;14.30;53.35;98561.44;10362375;28;20225;-71
2022/11/15 21:17:48;;;;;;;47.17;33.37;;;;;;;13.22;55.64;98583.19;10360000;28;20225;-73
2022/11/15 21:22:49;;;;;;;27.53;21.40;;;;;;;13.52;54.94;98529.38;10358087;28;20229;-73
2022/11/15 21:27:51;;;;;;;50.17;38.97;;;;;;;12.93;56.31;98554.28;10366122;28;20283;-73
2022/11/15 21:32:53;;;;;;;49.80;36.97;;;;;;;14.66;52.25;98544.09;10370507;28;20228;-73
2022/11/15 21:37:55;;;;;;;36.83;26.17;;;;;;;11.85;58.32;98600.63;10362171;28;20305;-73
2022/11/15 21:42:57;;;;;;;23.70;20.20;;;;;;;13.03;56.38;98559.09;10363948;28;20243;-73
2022/11/15 21:47:59;;;;;;;15.83;13.23;;;;;;;11.52;60.41;98596.34;10367181;28;20233;-75
2022/11/15 21:53:01;;;;;;;14.03;11.10;;;;;;;13.08;56.46;98527.00;10355003;28;20933;-73
2022/11/15 21:58:02;;;;;;;11.97;10.20;;;;;;;13.93;54.44;98502.56;10357373;28;20903;-73
2022/11/15 22:03:04;;;;;;;17.53;13.40;;;;;;;13.27;55.40;98535.75;10368821;28;20247;-73
2022/11/15 22:08:06;;;;;;;21.87;17.93;;;;;;;12.47;57.69;98563.81;10371956;28;20248;-73
2022/11/15 22:13:07;;;;;;;15.77;12.13;;;;;;;12.45;57.45;98514.06;10362594;28;20230;-73
2022/11/15 22:18:09;;;;;;;13.47;10.73;;;;;;;13.16;55.90;98466.75;10370116;28;20282;-73
2022/11/15 22:23:11;;;;;;;11.70;8.67;;;;;;;12.32;58.50;98520.44;10374651;28;20615;-73
2022/11/15 22:28:12;;;;;;;12.43;8.90;;;;;;;12.13;59.95;98508.91;10361285;28;20308;-73
2022/11/15 22:33:18;;;;;;;12.20;8.93;;;;;;;11.71;59.63;98517.66;10358967;28;20621;-73
2022/11/15 22:38:21;;;;;;;11.03;8.80;;;;;;;11.12;61.74;98529.72;10362007;28;20312;-75
2022/11/15 22:43:25;;;;;;;13.17;9.60;;;;;;;11.35;60.66;98496.97;10356511;28;20277;-75
2022/11/15 22:48:33;;;;;;;11.37;8.83;;;;;;;11.20;61.18;98497.31;10360447;28;20384;-72
2022/11/15 22:53:35;;;;;;;11.90;8.53;;;;;;;11.32;61.91;98490.22;10368555;28;20264;-73
2022/11/15 22:58:38;;;;;;;11.63;8.30;;;;;;;11.32;61.62;98476.81;10359584;28;20241;-73
2022/11/15 23:03:40;;;;;;;11.93;8.20;;;;;;;11.32;61.39;98474.16;10362209;28;20224;-73
2022/11/15 23:08:42;;;;;;;12.00;8.60;;;;;;;11.04;61.80;98480.78;10366471;28;20725;-73
2022/11/15 23:13:44;;;;;;;10.57;8.97;;;;;;;12.00;60.31;98422.25;10356282;28;20652;-73
2022/11/15 23:18:45;;;;;;;13.83;9.60;;;;;;;11.32;61.46;98460.75;10364128;28;20236;-75
2022/11/15 23:23:47;;;;;;;14.03;9.50;;;;;;;11.76;60.28;98409.78;10362300;28;20232;-75
2022/11/15 23:28:48;;;;;;;11.27;8.77;;;;;;;11.19;61.60;98476.94;10367016;28;20241;-73
2022/11/15 23:33:56;;;;;;;13.20;9.23;;;;;;;11.77;60.43;98433.66;10361192;28;20613;-75
2022/11/15 23:38:58;;;;;;;12.13;9.47;;;;;;;12.76;57.77;98421.78;10364209;28;20240;-72
2022/11/15 23:44:00;;;;;;;12.97;9.60;;;;;;;11.59;60.19;98487.25;10354339;28;20229;-73
2022/11/15 23:49:02;;;;;;;11.40;9.20;;;;;;;12.70;57.96;98417.31;10355596;28;20248;-75
2022/11/15 23:54:04;;;;;;;14.80;9.47;;;;;;;12.51;58.49;98408.56;10374996;28;20237;-73
2022/11/15 23:59:07;;;;;;;13.20;9.87;;;;;;;12.22;59.05;98456.63;10357547;28;20229;-75
